sensor_id;sensor_type;location;lat;lon;timestamp;P1;durP1;ratioP1;P2;durP2;ratioP2
35576;SDS011;21680;52.400;16.920;2023-03-01T00:03:48;146.90;;;51.10;;
35576;SDS011;21680;52.400;16.920;2023-03-01T00:06:14;157.00;;;52.10;;
35576;SDS011;21680;52.400;16.920;2023-03-01T00:08:39;156.90;;;50.60;;
35576;SDS011;21680;52.400;16.920;2023-03-01T00:11:10;182.10;;;55.80;;
35576;SDS011;21680;52.400;16.920;2023-03-01T00:13:37;166.10;;;55.50;;
35576;SDS011;21680;52.400;16.920;2023-03-01T00:16:08;165.20;;;55.00;;
35576;SDS011;21680;52.400;16.920;2023-03-01T00:18:35;166.20;;;56.30;;
35576;SDS011;21680;52.400;16.920;2023-03-01T00:21:01;184.10;;;57.20;;
35576;SDS011;21680;52.400;16.920;2023-03-01T00:23:26;182.60;;;59.20;;
35576;SDS011;21680;52.400;16.920;2023-03-01T00:25:52;183.70;;;58.40;;
35576;SDS011;21680;52.400;16.920;2023-03-01T00:28:18;181.00;;;60.10;;
35576;SDS011;21680;52.400;16.920;2023-03-01T00:30:44;191.10;;;61.70;;
35576;SDS011;21680;52.400;16.920;2023-03-01T00:33:10;196.10;;;61.30;;
35576;SDS011;21680;52.400;16.920;2023-03-01T00:35:35;200.30;;;60.50;;
35576;SDS011;21680;52.400;16.920;2023-03-01T00:38:01;186.60;;;61.30;;
35576;SDS011;21680;52.400;16.920;2023-03-01T00:40:28;182.40;;;61.60;;
35576;SDS011;21680;52.400;16.920;2023-03-01T00:42:54;188.00;;;58.40;;
35576;SDS011;21680;52.400;16.920;2023-03-01T00:45:20;188.50;;;60.80;;
35576;SDS011;21680;52.400;16.920;2023-03-01T00:47:45;185.50;;;58.40;;
35576;SDS011;21680;52.400;16.920;2023-03-01T00:50:11;192.10;;;61.40;;
35576;SDS011;21680;52.400;16.920;2023-03-01T00:52:37;192.80;;;63.20;;
35576;SDS011;21680;52.400;16.920;2023-03-01T00:55:03;183.90;;;58.80;;
35576;SDS011;21680;52.400;16.920;2023-03-01T00:57:29;185.60;;;59.90;;
35576;SDS011;21680;52.400;16.920;2023-03-01T00:59:55;206.20;;;65.80;;
35576;SDS011;21680;52.400;16.920;2023-03-01T01:02:20;204.10;;;64.50;;
35576;SDS011;21680;52.400;16.920;2023-03-01T01:04:46;202.30;;;66.50;;
35576;SDS011;21680;52.400;16.920;2023-03-01T01:07:12;194.80;;;62.30;;
35576;SDS011;21680;52.400;16.920;2023-03-01T01:09:38;199.30;;;64.40;;
35576;SDS011;21680;52.400;16.920;2023-03-01T01:12:04;186.40;;;60.20;;
35576;SDS011;21680;52.400;16.920;2023-03-01T01:14:30;173.60;;;57.10;;
35576;SDS011;21680;52.400;16.920;2023-03-01T01:16:56;176.50;;;59.80;;
35576;SDS011;21680;52.400;16.920;2023-03-01T01:19:22;167.00;;;58.00;;
35576;SDS011;21680;52.400;16.920;2023-03-01T01:21:48;172.60;;;53.20;;
35576;SDS011;21680;52.400;16.920;2023-03-01T01:24:14;155.90;;;50.90;;
35576;SDS011;21680;52.400;16.920;2023-03-01T01:26:40;239.20;;;73.50;;
35576;SDS011;21680;52.400;16.920;2023-03-01T01:29:07;193.00;;;63.50;;
35576;SDS011;21680;52.400;16.920;2023-03-01T01:31:34;208.70;;;65.50;;
35576;SDS011;21680;52.400;16.920;2023-03-01T01:34:02;210.30;;;66.70;;
35576;SDS011;21680;52.400;16.920;2023-03-01T01:36:29;179.90;;;60.50;;
35576;SDS011;21680;52.400;16.920;2023-03-01T01:38:55;182.00;;;60.60;;
35576;SDS011;21680;52.400;16.920;2023-03-01T01:41:24;188.30;;;59.00;;
35576;SDS011;21680;52.400;16.920;2023-03-01T01:46:51;202.60;;;63.30;;
35576;SDS011;21680;52.400;16.920;2023-03-01T01:51:47;198.50;;;67.20;;
35576;SDS011;21680;52.400;16.920;2023-03-01T01:54:22;210.90;;;66.30;;
35576;SDS011;21680;52.400;16.920;2023-03-01T01:56:58;205.40;;;66.10;;
35576;SDS011;21680;52.400;16.920;2023-03-01T01:59:28;206.70;;;66.80;;
35576;SDS011;21680;52.400;16.920;2023-03-01T02:01:57;205.80;;;64.10;;
35576;SDS011;21680;52.400;16.920;2023-03-01T02:04:25;220.10;;;67.90;;
35576;SDS011;21680;52.400;16.920;2023-03-01T02:06:56;216.90;;;67.30;;
35576;SDS011;21680;52.400;16.920;2023-03-01T02:09:26;215.00;;;67.50;;
35576;SDS011;21680;52.400;16.920;2023-03-01T02:11:52;213.90;;;69.10;;
35576;SDS011;21680;52.400;16.920;2023-03-01T02:14:19;188.90;;;61.80;;
35576;SDS011;21680;52.400;16.920;2023-03-01T02:16:44;194.50;;;65.20;;
35576;SDS011;21680;52.400;16.920;2023-03-01T02:19:12;203.80;;;64.30;;
35576;SDS011;21680;52.400;16.920;2023-03-01T02:21:56;204.60;;;64.00;;
35576;SDS011;21680;52.400;16.920;2023-03-01T02:27:08;176.50;;;58.50;;
35576;SDS011;21680;52.400;16.920;2023-03-01T02:29:35;198.60;;;57.80;;
35576;SDS011;21680;52.400;16.920;2023-03-01T02:32:01;181.90;;;55.20;;
35576;SDS011;21680;52.400;16.920;2023-03-01T02:34:28;167.90;;;52.90;;
35576;SDS011;21680;52.400;16.920;2023-03-01T02:36:57;182.70;;;56.40;;
35576;SDS011;21680;52.400;16.920;2023-03-01T02:39:27;165.20;;;53.80;;
35576;SDS011;21680;52.400;16.920;2023-03-01T02:41:59;166.90;;;54.70;;
35576;SDS011;21680;52.400;16.920;2023-03-01T02:44:27;157.10;;;53.30;;
35576;SDS011;21680;52.400;16.920;2023-03-01T02:46:53;152.30;;;51.40;;
35576;SDS011;21680;52.400;16.920;2023-03-01T02:57:26;170.90;;;51.70;;
35576;SDS011;21680;52.400;16.920;2023-03-01T02:59:53;163.40;;;52.10;;
35576;SDS011;21680;52.400;16.920;2023-03-01T03:02:22;147.60;;;50.50;;
35576;SDS011;21680;52.400;16.920;2023-03-01T03:07:33;156.50;;;49.00;;
35576;SDS011;21680;52.400;16.920;2023-03-01T03:10:00;155.00;;;49.60;;
35576;SDS011;21680;52.400;16.920;2023-03-01T03:12:27;156.80;;;52.10;;
35576;SDS011;21680;52.400;16.920;2023-03-01T03:14:52;161.50;;;50.80;;
35576;SDS011;21680;52.400;16.920;2023-03-01T03:17:17;149.30;;;51.40;;
35576;SDS011;21680;52.400;16.920;2023-03-01T03:19:43;160.70;;;50.00;;
35576;SDS011;21680;52.400;16.920;2023-03-01T03:22:11;163.40;;;49.50;;
35576;SDS011;21680;52.400;16.920;2023-03-01T03:24:37;167.00;;;50.70;;
35576;SDS011;21680;52.400;16.920;2023-03-01T03:27:03;154.00;;;47.10;;
35576;SDS011;21680;52.400;16.920;2023-03-01T03:29:29;142.80;;;46.20;;
35576;SDS011;21680;52.400;16.920;2023-03-01T03:31:54;145.20;;;46.30;;
35576;SDS011;21680;52.400;16.920;2023-03-01T03:34:19;123.60;;;43.50;;
35576;SDS011;21680;52.400;16.920;2023-03-01T03:36:45;144.50;;;48.50;;
35576;SDS011;21680;52.400;16.920;2023-03-01T03:39:10;139.30;;;47.80;;
35576;SDS011;21680;52.400;16.920;2023-03-01T03:41:35;139.70;;;46.50;;
35576;SDS011;21680;52.400;16.920;2023-03-01T03:44:00;146.20;;;48.00;;
35576;SDS011;21680;52.400;16.920;2023-03-01T03:46:26;138.30;;;45.50;;
35576;SDS011;21680;52.400;16.920;2023-03-01T03:48:51;133.80;;;46.40;;
35576;SDS011;21680;52.400;16.920;2023-03-01T03:51:17;133.40;;;48.40;;
35576;SDS011;21680;52.400;16.920;2023-03-01T03:53:43;160.70;;;50.20;;
35576;SDS011;21680;52.400;16.920;2023-03-01T03:56:10;150.80;;;51.20;;
35576;SDS011;21680;52.400;16.920;2023-03-01T03:58:35;138.30;;;44.80;;
35576;SDS011;21680;52.400;16.920;2023-03-01T04:01:01;147.20;;;48.70;;
35576;SDS011;21680;52.400;16.920;2023-03-01T04:03:27;126.50;;;44.50;;
35576;SDS011;21680;52.400;16.920;2023-03-01T04:05:53;142.70;;;46.90;;
35576;SDS011;21680;52.400;16.920;2023-03-01T04:08:19;147.10;;;46.70;;
35576;SDS011;21680;52.400;16.920;2023-03-01T04:10:47;139.40;;;46.10;;
35576;SDS011;21680;52.400;16.920;2023-03-01T04:13:19;124.70;;;44.70;;
35576;SDS011;21680;52.400;16.920;2023-03-01T04:15:48;157.00;;;47.90;;
35576;SDS011;21680;52.400;16.920;2023-03-01T04:18:14;141.10;;;46.20;;
35576;SDS011;21680;52.400;16.920;2023-03-01T04:20:41;145.40;;;47.10;;
35576;SDS011;21680;52.400;16.920;2023-03-01T04:23:08;144.80;;;47.30;;
35576;SDS011;21680;52.400;16.920;2023-03-01T04:25:38;142.70;;;49.10;;
35576;SDS011;21680;52.400;16.920;2023-03-01T04:28:04;153.80;;;50.70;;
35576;SDS011;21680;52.400;16.920;2023-03-01T04:30:29;150.40;;;50.30;;
35576;SDS011;21680;52.400;16.920;2023-03-01T04:33:00;145.20;;;47.20;;
35576;SDS011;21680;52.400;16.920;2023-03-01T04:35:33;142.30;;;46.40;;
35576;SDS011;21680;52.400;16.920;2023-03-01T04:38:00;151.50;;;49.10;;
35576;SDS011;21680;52.400;16.920;2023-03-01T04:40:26;157.40;;;50.10;;
35576;SDS011;21680;52.400;16.920;2023-03-01T04:42:52;156.80;;;51.80;;
35576;SDS011;21680;52.400;16.920;2023-03-01T04:45:17;153.90;;;48.70;;
35576;SDS011;21680;52.400;16.920;2023-03-01T04:47:43;143.10;;;48.50;;
35576;SDS011;21680;52.400;16.920;2023-03-01T04:50:11;134.60;;;46.20;;
35576;SDS011;21680;52.400;16.920;2023-03-01T04:52:39;143.60;;;45.30;;
35576;SDS011;21680;52.400;16.920;2023-03-01T04:55:04;143.30;;;48.30;;
35576;SDS011;21680;52.400;16.920;2023-03-01T04:57:31;148.80;;;47.10;;
35576;SDS011;21680;52.400;16.920;2023-03-01T04:59:57;138.60;;;47.00;;
35576;SDS011;21680;52.400;16.920;2023-03-01T05:02:22;148.80;;;45.10;;
35576;SDS011;21680;52.400;16.920;2023-03-01T05:04:47;134.40;;;44.80;;
35576;SDS011;21680;52.400;16.920;2023-03-01T05:07:13;125.30;;;43.60;;
35576;SDS011;21680;52.400;16.920;2023-03-01T05:09:45;143.00;;;48.90;;
35576;SDS011;21680;52.400;16.920;2023-03-01T05:12:11;146.70;;;46.50;;
35576;SDS011;21680;52.400;16.920;2023-03-01T05:14:37;135.90;;;46.20;;
35576;SDS011;21680;52.400;16.920;2023-03-01T05:17:03;151.70;;;50.60;;
35576;SDS011;21680;52.400;16.920;2023-03-01T05:19:29;146.20;;;47.50;;
35576;SDS011;21680;52.400;16.920;2023-03-01T05:21:56;130.00;;;46.20;;
35576;SDS011;21680;52.400;16.920;2023-03-01T05:24:31;145.10;;;46.80;;
35576;SDS011;21680;52.400;16.920;2023-03-01T05:26:58;132.20;;;45.70;;
35576;SDS011;21680;52.400;16.920;2023-03-01T05:29:24;140.00;;;45.40;;
35576;SDS011;21680;52.400;16.920;2023-03-01T05:31:52;145.40;;;46.90;;
35576;SDS011;21680;52.400;16.920;2023-03-01T05:34:23;157.30;;;49.60;;
35576;SDS011;21680;52.400;16.920;2023-03-01T05:36:52;146.10;;;49.00;;
35576;SDS011;21680;52.400;16.920;2023-03-01T05:39:19;155.80;;;47.10;;
35576;SDS011;21680;52.400;16.920;2023-03-01T05:41:48;144.60;;;48.90;;
35576;SDS011;21680;52.400;16.920;2023-03-01T05:44:17;149.50;;;48.00;;
35576;SDS011;21680;52.400;16.920;2023-03-01T05:46:42;152.90;;;50.40;;
35576;SDS011;21680;52.400;16.920;2023-03-01T05:49:08;156.90;;;52.40;;
35576;SDS011;21680;52.400;16.920;2023-03-01T05:51:33;151.10;;;50.50;;
35576;SDS011;21680;52.400;16.920;2023-03-01T05:53:59;150.50;;;49.80;;
35576;SDS011;21680;52.400;16.920;2023-03-01T05:56:24;151.40;;;49.30;;
35576;SDS011;21680;52.400;16.920;2023-03-01T05:58:49;159.10;;;52.40;;
35576;SDS011;21680;52.400;16.920;2023-03-01T06:01:15;160.70;;;51.60;;
35576;SDS011;21680;52.400;16.920;2023-03-01T06:03:40;155.60;;;52.30;;
35576;SDS011;21680;52.400;16.920;2023-03-01T06:06:06;143.00;;;50.30;;
35576;SDS011;21680;52.400;16.920;2023-03-01T06:08:31;158.50;;;51.60;;
35576;SDS011;21680;52.400;16.920;2023-03-01T06:10:56;151.70;;;51.30;;
35576;SDS011;21680;52.400;16.920;2023-03-01T06:13:22;161.90;;;55.30;;
35576;SDS011;21680;52.400;16.920;2023-03-01T06:15:48;178.60;;;57.60;;
35576;SDS011;21680;52.400;16.920;2023-03-01T06:18:14;178.00;;;56.10;;
35576;SDS011;21680;52.400;16.920;2023-03-01T06:20:39;164.40;;;53.60;;
35576;SDS011;21680;52.400;16.920;2023-03-01T06:23:05;174.00;;;54.70;;
35576;SDS011;21680;52.400;16.920;2023-03-01T06:25:30;174.70;;;57.00;;
35576;SDS011;21680;52.400;16.920;2023-03-01T06:27:56;160.00;;;53.90;;
35576;SDS011;21680;52.400;16.920;2023-03-01T06:30:22;172.20;;;56.50;;
35576;SDS011;21680;52.400;16.920;2023-03-01T06:32:49;172.60;;;56.40;;
35576;SDS011;21680;52.400;16.920;2023-03-01T06:35:16;175.50;;;56.70;;
35576;SDS011;21680;52.400;16.920;2023-03-01T06:37:43;154.20;;;56.90;;
35576;SDS011;21680;52.400;16.920;2023-03-01T06:40:09;169.80;;;56.40;;
35576;SDS011;21680;52.400;16.920;2023-03-01T06:42:36;170.10;;;55.20;;
35576;SDS011;21680;52.400;16.920;2023-03-01T06:45:03;164.70;;;54.90;;
35576;SDS011;21680;52.400;16.920;2023-03-01T06:47:30;167.50;;;54.20;;
35576;SDS011;21680;52.400;16.920;2023-03-01T06:49:55;152.70;;;52.40;;
35576;SDS011;21680;52.400;16.920;2023-03-01T06:52:21;139.50;;;49.70;;
35576;SDS011;21680;52.400;16.920;2023-03-01T06:54:46;130.80;;;45.30;;
35576;SDS011;21680;52.400;16.920;2023-03-01T06:57:11;120.90;;;42.20;;
35576;SDS011;21680;52.400;16.920;2023-03-01T06:59:37;104.20;;;34.90;;
35576;SDS011;21680;52.400;16.920;2023-03-01T07:02:02;106.50;;;38.10;;
35576;SDS011;21680;52.400;16.920;2023-03-01T07:04:27;113.80;;;36.70;;
35576;SDS011;21680;52.400;16.920;2023-03-01T07:06:56;113.40;;;38.00;;
35576;SDS011;21680;52.400;16.920;2023-03-01T07:09:22;115.80;;;35.10;;
35576;SDS011;21680;52.400;16.920;2023-03-01T07:11:48;83.30;;;30.00;;
35576;SDS011;21680;52.400;16.920;2023-03-01T07:14:14;92.40;;;31.10;;
35576;SDS011;21680;52.400;16.920;2023-03-01T07:16:39;77.30;;;26.00;;
35576;SDS011;21680;52.400;16.920;2023-03-01T07:19:04;72.70;;;24.90;;
35576;SDS011;21680;52.400;16.920;2023-03-01T07:21:30;75.30;;;28.20;;
35576;SDS011;21680;52.400;16.920;2023-03-01T07:23:56;74.70;;;26.80;;
35576;SDS011;21680;52.400;16.920;2023-03-01T07:26:22;86.10;;;28.90;;
35576;SDS011;21680;52.400;16.920;2023-03-01T07:28:47;65.20;;;22.80;;
35576;SDS011;21680;52.400;16.920;2023-03-01T07:31:12;94.00;;;28.40;;
35576;SDS011;21680;52.400;16.920;2023-03-01T07:33:37;91.60;;;34.00;;
35576;SDS011;21680;52.400;16.920;2023-03-01T07:36:03;104.10;;;35.30;;
35576;SDS011;21680;52.400;16.920;2023-03-01T07:38:30;98.60;;;36.70;;
35576;SDS011;21680;52.400;16.920;2023-03-01T07:40:59;107.60;;;35.10;;
35576;SDS011;21680;52.400;16.920;2023-03-01T07:43:27;76.70;;;29.00;;
35576;SDS011;21680;52.400;16.920;2023-03-01T07:45:53;80.50;;;26.80;;
35576;SDS011;21680;52.400;16.920;2023-03-01T07:48:18;59.60;;;22.50;;
35576;SDS011;21680;52.400;16.920;2023-03-01T07:50:44;88.20;;;25.70;;
35576;SDS011;21680;52.400;16.920;2023-03-01T07:53:09;70.00;;;25.20;;
35576;SDS011;21680;52.400;16.920;2023-03-01T07:55:35;70.00;;;25.10;;
35576;SDS011;21680;52.400;16.920;2023-03-01T07:58:01;79.90;;;25.40;;
35576;SDS011;21680;52.400;16.920;2023-03-01T08:00:26;61.70;;;21.90;;
35576;SDS011;21680;52.400;16.920;2023-03-01T08:02:51;68.10;;;22.70;;
35576;SDS011;21680;52.400;16.920;2023-03-01T08:05:17;47.40;;;19.00;;
35576;SDS011;21680;52.400;16.920;2023-03-01T08:07:42;70.00;;;22.90;;
35576;SDS011;21680;52.400;16.920;2023-03-01T08:10:08;55.00;;;19.90;;
35576;SDS011;21680;52.400;16.920;2023-03-01T08:12:34;54.10;;;20.50;;
35576;SDS011;21680;52.400;16.920;2023-03-01T08:14:59;49.70;;;20.00;;
35576;SDS011;21680;52.400;16.920;2023-03-01T08:17:24;51.90;;;17.30;;
35576;SDS011;21680;52.400;16.920;2023-03-01T08:19:50;47.50;;;16.10;;
35576;SDS011;21680;52.400;16.920;2023-03-01T08:22:15;47.20;;;16.60;;
35576;SDS011;21680;52.400;16.920;2023-03-01T08:24:40;44.70;;;17.00;;
35576;SDS011;21680;52.400;16.920;2023-03-01T08:27:06;43.70;;;16.00;;
35576;SDS011;21680;52.400;16.920;2023-03-01T08:29:31;44.70;;;17.70;;
35576;SDS011;21680;52.400;16.920;2023-03-01T08:31:57;42.50;;;15.10;;
35576;SDS011;21680;52.400;16.920;2023-03-01T08:34:23;54.90;;;17.60;;
35576;SDS011;21680;52.400;16.920;2023-03-01T08:36:48;53.00;;;18.00;;
35576;SDS011;21680;52.400;16.920;2023-03-01T08:39:15;52.00;;;19.10;;
35576;SDS011;21680;52.400;16.920;2023-03-01T08:41:43;54.00;;;21.00;;
35576;SDS011;21680;52.400;16.920;2023-03-01T08:44:09;55.80;;;21.00;;
35576;SDS011;21680;52.400;16.920;2023-03-01T08:46:40;49.00;;;18.50;;
35576;SDS011;21680;52.400;16.920;2023-03-01T08:49:07;55.30;;;21.70;;
35576;SDS011;21680;52.400;16.920;2023-03-01T08:51:35;52.40;;;19.20;;
35576;SDS011;21680;52.400;16.920;2023-03-01T08:54:04;50.00;;;16.60;;
35576;SDS011;21680;52.400;16.920;2023-03-01T08:56:31;32.40;;;13.40;;
35576;SDS011;21680;52.400;16.920;2023-03-01T08:58:57;32.30;;;11.30;;
35576;SDS011;21680;52.400;16.920;2023-03-01T09:01:23;37.70;;;12.00;;
35576;SDS011;21680;52.400;16.920;2023-03-01T09:03:48;31.20;;;12.20;;
35576;SDS011;21680;52.400;16.920;2023-03-01T09:06:14;39.30;;;13.10;;
35576;SDS011;21680;52.400;16.920;2023-03-01T09:08:41;30.60;;;13.90;;
35576;SDS011;21680;52.400;16.920;2023-03-01T09:11:10;38.20;;;14.20;;
35576;SDS011;21680;52.400;16.920;2023-03-01T09:13:37;31.10;;;11.50;;
35576;SDS011;21680;52.400;16.920;2023-03-01T09:16:03;27.00;;;10.50;;
35576;SDS011;21680;52.400;16.920;2023-03-01T09:18:30;29.10;;;10.90;;
35576;SDS011;21680;52.400;16.920;2023-03-01T09:21:09;26.30;;;10.60;;
35576;SDS011;21680;52.400;16.920;2023-03-01T09:23:40;30.90;;;10.30;;
35576;SDS011;21680;52.400;16.920;2023-03-01T09:26:15;30.50;;;11.60;;
35576;SDS011;21680;52.400;16.920;2023-03-01T09:28:44;33.90;;;10.50;;
35576;SDS011;21680;52.400;16.920;2023-03-01T09:31:10;22.90;;;9.80;;
35576;SDS011;21680;52.400;16.920;2023-03-01T09:33:40;29.00;;;10.40;;
35576;SDS011;21680;52.400;16.920;2023-03-01T09:36:07;31.50;;;11.50;;
35576;SDS011;21680;52.400;16.920;2023-03-01T09:38:35;27.10;;;10.00;;
35576;SDS011;21680;52.400;16.920;2023-03-01T09:41:01;31.00;;;11.30;;
35576;SDS011;21680;52.400;16.920;2023-03-01T09:46:05;31.60;;;11.20;;
35576;SDS011;21680;52.400;16.920;2023-03-01T09:48:38;28.20;;;10.90;;
35576;SDS011;21680;52.400;16.920;2023-03-01T09:51:08;30.50;;;9.90;;
35576;SDS011;21680;52.400;16.920;2023-03-01T09:53:41;24.00;;;11.10;;
35576;SDS011;21680;52.400;16.920;2023-03-01T09:56:20;25.80;;;9.20;;
35576;SDS011;21680;52.400;16.920;2023-03-01T10:01:31;26.30;;;11.60;;
35576;SDS011;21680;52.400;16.920;2023-03-01T10:09:35;23.70;;;10.60;;
35576;SDS011;21680;52.400;16.920;2023-03-01T10:12:04;32.40;;;10.10;;
35576;SDS011;21680;52.400;16.920;2023-03-01T10:14:36;26.80;;;11.20;;
35576;SDS011;21680;52.400;16.920;2023-03-01T10:17:11;28.20;;;9.20;;
35576;SDS011;21680;52.400;16.920;2023-03-01T10:19:45;18.90;;;8.10;;
35576;SDS011;21680;52.400;16.920;2023-03-01T10:22:27;21.40;;;7.70;;
35576;SDS011;21680;52.400;16.920;2023-03-01T10:24:56;16.90;;;7.60;;
35576;SDS011;21680;52.400;16.920;2023-03-01T10:30:11;21.90;;;8.20;;
35576;SDS011;21680;52.400;16.920;2023-03-01T10:32:45;17.90;;;7.20;;
35576;SDS011;21680;52.400;16.920;2023-03-01T10:35:18;14.50;;;5.90;;
35576;SDS011;21680;52.400;16.920;2023-03-01T10:38:07;16.50;;;6.30;;
35576;SDS011;21680;52.400;16.920;2023-03-01T10:40:36;17.30;;;7.30;;
35576;SDS011;21680;52.400;16.920;2023-03-01T10:43:16;23.00;;;7.80;;
35576;SDS011;21680;52.400;16.920;2023-03-01T10:45:42;18.60;;;7.40;;
35576;SDS011;21680;52.400;16.920;2023-03-01T10:48:17;22.00;;;7.10;;
35576;SDS011;21680;52.400;16.920;2023-03-01T10:50:48;16.00;;;6.70;;
35576;SDS011;21680;52.400;16.920;2023-03-01T10:58:25;15.70;;;6.40;;
35576;SDS011;21680;52.400;16.920;2023-03-01T11:00:52;14.70;;;5.90;;
35576;SDS011;21680;52.400;16.920;2023-03-01T11:03:22;13.70;;;5.20;;
35576;SDS011;21680;52.400;16.920;2023-03-01T11:13:32;12.20;;;5.00;;
35576;SDS011;21680;52.400;16.920;2023-03-01T11:16:10;17.80;;;5.00;;
35576;SDS011;21680;52.400;16.920;2023-03-01T11:18:37;12.70;;;5.40;;
35576;SDS011;21680;52.400;16.920;2023-03-01T11:21:03;17.20;;;5.90;;
35576;SDS011;21680;52.400;16.920;2023-03-01T11:23:30;13.20;;;4.90;;
35576;SDS011;21680;52.400;16.920;2023-03-01T11:26:02;14.10;;;5.30;;
35576;SDS011;21680;52.400;16.920;2023-03-01T11:28:32;16.90;;;5.00;;
35576;SDS011;21680;52.400;16.920;2023-03-01T11:31:09;21.40;;;5.30;;
35576;SDS011;21680;52.400;16.920;2023-03-01T11:33:46;14.30;;;4.70;;
35576;SDS011;21680;52.400;16.920;2023-03-01T11:38:55;13.60;;;4.60;;
35576;SDS011;21680;52.400;16.920;2023-03-01T11:41:26;7.90;;;3.70;;
35576;SDS011;21680;52.400;16.920;2023-03-01T11:52:15;13.30;;;5.00;;
35576;SDS011;21680;52.400;16.920;2023-03-01T11:55:07;13.40;;;5.00;;
35576;SDS011;21680;52.400;16.920;2023-03-01T11:58:17;13.10;;;5.10;;
35576;SDS011;21680;52.400;16.920;2023-03-01T12:01:13;16.50;;;4.90;;
35576;SDS011;21680;52.400;16.920;2023-03-01T12:03:52;12.00;;;5.00;;
35576;SDS011;21680;52.400;16.920;2023-03-01T12:11:58;11.70;;;6.30;;
35576;SDS011;21680;52.400;16.920;2023-03-01T12:20:28;12.70;;;5.40;;
35576;SDS011;21680;52.400;16.920;2023-03-01T12:25:41;14.20;;;6.10;;
35576;SDS011;21680;52.400;16.920;2023-03-01T12:28:17;16.70;;;5.90;;
35576;SDS011;21680;52.400;16.920;2023-03-01T12:31:05;10.90;;;4.90;;
35576;SDS011;21680;52.400;16.920;2023-03-01T12:37:19;10.50;;;5.20;;
35576;SDS011;21680;52.400;16.920;2023-03-01T12:39:58;11.60;;;5.60;;
35576;SDS011;21680;52.400;16.920;2023-03-01T12:45:16;11.40;;;5.50;;
35576;SDS011;21680;52.400;16.920;2023-03-01T12:50:41;13.60;;;5.40;;
35576;SDS011;21680;52.400;16.920;2023-03-01T12:53:24;12.20;;;4.90;;
35576;SDS011;21680;52.400;16.920;2023-03-01T12:55:53;12.00;;;5.20;;
35576;SDS011;21680;52.400;16.920;2023-03-01T13:01:14;9.60;;;4.90;;
35576;SDS011;21680;52.400;16.920;2023-03-01T13:06:50;11.90;;;6.60;;
35576;SDS011;21680;52.400;16.920;2023-03-01T13:17:55;10.20;;;5.30;;
35576;SDS011;21680;52.400;16.920;2023-03-01T13:20:21;10.90;;;5.10;;
35576;SDS011;21680;52.400;16.920;2023-03-01T13:23:00;12.60;;;6.60;;
35576;SDS011;21680;52.400;16.920;2023-03-01T13:25:30;11.80;;;5.10;;
35576;SDS011;21680;52.400;16.920;2023-03-01T13:30:58;10.80;;;5.30;;
35576;SDS011;21680;52.400;16.920;2023-03-01T13:35:53;10.70;;;5.10;;
35576;SDS011;21680;52.400;16.920;2023-03-01T13:44:29;20.60;;;6.80;;
35576;SDS011;21680;52.400;16.920;2023-03-01T13:47:03;17.10;;;5.40;;
35576;SDS011;21680;52.400;16.920;2023-03-01T13:49:34;9.50;;;5.10;;
35576;SDS011;21680;52.400;16.920;2023-03-01T13:55:17;9.30;;;5.40;;
35576;SDS011;21680;52.400;16.920;2023-03-01T13:57:47;15.50;;;5.40;;
35576;SDS011;21680;52.400;16.920;2023-03-01T14:05:50;7.80;;;5.40;;
35576;SDS011;21680;52.400;16.920;2023-03-01T14:08:28;11.40;;;5.00;;
35576;SDS011;21680;52.400;16.920;2023-03-01T14:16:56;11.80;;;5.80;;
35576;SDS011;21680;52.400;16.920;2023-03-01T14:19:33;9.70;;;5.10;;
35576;SDS011;21680;52.400;16.920;2023-03-01T14:22:00;9.20;;;5.00;;
35576;SDS011;21680;52.400;16.920;2023-03-01T14:24:51;10.60;;;5.30;;
35576;SDS011;21680;52.400;16.920;2023-03-01T14:27:20;14.60;;;6.30;;
35576;SDS011;21680;52.400;16.920;2023-03-01T14:29:56;11.50;;;5.80;;
35576;SDS011;21680;52.400;16.920;2023-03-01T14:32:24;9.90;;;5.70;;
35576;SDS011;21680;52.400;16.920;2023-03-01T14:34:52;15.70;;;5.30;;
35576;SDS011;21680;52.400;16.920;2023-03-01T14:37:28;8.50;;;5.20;;
35576;SDS011;21680;52.400;16.920;2023-03-01T14:39:56;12.20;;;5.10;;
35576;SDS011;21680;52.400;16.920;2023-03-01T14:42:23;7.30;;;4.60;;
35576;SDS011;21680;52.400;16.920;2023-03-01T14:44:52;9.80;;;5.00;;
35576;SDS011;21680;52.400;16.920;2023-03-01T14:47:25;13.20;;;5.70;;
35576;SDS011;21680;52.400;16.920;2023-03-01T14:50:02;23.50;;;5.70;;
35576;SDS011;21680;52.400;16.920;2023-03-01T14:52:48;12.40;;;5.60;;
35576;SDS011;21680;52.400;16.920;2023-03-01T14:55:18;12.30;;;5.90;;
35576;SDS011;21680;52.400;16.920;2023-03-01T14:57:49;10.40;;;5.00;;
35576;SDS011;21680;52.400;16.920;2023-03-01T15:00:18;11.70;;;4.80;;
35576;SDS011;21680;52.400;16.920;2023-03-01T15:02:48;14.40;;;5.40;;
35576;SDS011;21680;52.400;16.920;2023-03-01T15:05:17;16.10;;;6.60;;
35576;SDS011;21680;52.400;16.920;2023-03-01T15:07:47;17.90;;;6.30;;
35576;SDS011;21680;52.400;16.920;2023-03-01T15:10:22;12.10;;;5.70;;
35576;SDS011;21680;52.400;16.920;2023-03-01T15:12:49;18.40;;;5.90;;
35576;SDS011;21680;52.400;16.920;2023-03-01T15:15:22;12.20;;;5.70;;
35576;SDS011;21680;52.400;16.920;2023-03-01T15:17:55;13.60;;;5.50;;
35576;SDS011;21680;52.400;16.920;2023-03-01T15:20:24;17.00;;;6.10;;
35576;SDS011;21680;52.400;16.920;2023-03-01T15:22:55;15.10;;;5.90;;
35576;SDS011;21680;52.400;16.920;2023-03-01T15:25:25;15.40;;;6.30;;
35576;SDS011;21680;52.400;16.920;2023-03-01T15:27:53;11.00;;;5.50;;
35576;SDS011;21680;52.400;16.920;2023-03-01T15:30:31;15.00;;;5.70;;
35576;SDS011;21680;52.400;16.920;2023-03-01T15:36:02;16.70;;;6.50;;
35576;SDS011;21680;52.400;16.920;2023-03-01T15:38:55;14.70;;;6.10;;
35576;SDS011;21680;52.400;16.920;2023-03-01T15:41:31;16.60;;;6.30;;
35576;SDS011;21680;52.400;16.920;2023-03-01T15:44:48;22.90;;;6.70;;
35576;SDS011;21680;52.400;16.920;2023-03-01T15:46:52;25.70;;;6.60;;
35576;SDS011;21680;52.400;16.920;2023-03-01T15:49:23;19.30;;;7.70;;
35576;SDS011;21680;52.400;16.920;2023-03-01T15:52:01;21.60;;;6.30;;
35576;SDS011;21680;52.400;16.920;2023-03-01T15:54:26;15.50;;;5.80;;
35576;SDS011;21680;52.400;16.920;2023-03-01T15:56:53;13.40;;;6.80;;
35576;SDS011;21680;52.400;16.920;2023-03-01T15:59:18;16.80;;;6.60;;
35576;SDS011;21680;52.400;16.920;2023-03-01T16:01:44;20.80;;;6.30;;
35576;SDS011;21680;52.400;16.920;2023-03-01T16:04:10;17.70;;;6.60;;
35576;SDS011;21680;52.400;16.920;2023-03-01T16:06:41;23.30;;;6.50;;
35576;SDS011;21680;52.400;16.920;2023-03-01T16:09:07;16.50;;;6.50;;
35576;SDS011;21680;52.400;16.920;2023-03-01T16:11:32;12.60;;;6.60;;
35576;SDS011;21680;52.400;16.920;2023-03-01T16:14:01;20.80;;;6.60;;
35576;SDS011;21680;52.400;16.920;2023-03-01T16:16:27;17.70;;;5.40;;
35576;SDS011;21680;52.400;16.920;2023-03-01T16:18:53;12.70;;;6.60;;
35576;SDS011;21680;52.400;16.920;2023-03-01T16:21:21;26.60;;;7.10;;